Sider Manzanillo — CQIR5 — position and weather

sailwx.info

Track history (hours):
 
Tides and Currents Weather Stations Pressure Air Temp Water Temp Dewpoint Dewpoint Depression Visibility Wind Speed Wind Dir Waves Ship Positions

Sider Manzanillo

Last reported at 2017-Sep-17 06:05 UTC. Time now 2017-Sep-25 08:23 UTC.
Position N 40°23' E 018°28'.
Warning: this ship's position is 8 days out of date.

Length 108 m; draft 7.3 m.

Type: Cargo ship. MMSI: 255806046.

Date/timePositionNaut miles runAvg speedWind from/ knotsBaromVisibWave heightAir tempDewpointWater temp
2017-Sep-17 06:05N 40°23' E 018°28'1 9.0
2017-Sep-17 05:59N 40°23' E 018°29'4 9.2
2017-Sep-17 05:30N 40°19' E 018°32'4 8.8
2017-Sep-17 05:00N 40°15' E 018°35'5 9.1
2017-Sep-17 04:28N 40°10' E 018°35'4 9.2
2017-Sep-17 04:00N 40°06' E 018°36'5 9.1
2017-Sep-17 03:30N 40°02' E 018°34'5 9.3
2017-Sep-17 03:00N 39°57' E 018°32'5 9.3
2017-Sep-17 02:30N 39°53' E 018°31'5 9.4
2017-Sep-17 02:00N 39°48' E 018°29'4 8.9
2017-Sep-17 01:30N 39°44' E 018°26'4 8.3
2017-Sep-17 01:00N 39°43' E 018°21'5 9.1
2017-Sep-17 00:30N 39°43' E 018°15'5 9.6
2017-Sep-17 00:00N 39°43' E 018°09'4 8.5
2017-Sep-16 23:30N 39°44' E 018°04'4 8.6
2017-Sep-16 22:59N 39°47' E 017°60'4 8.5
2017-Sep-16 22:30N 39°50' E 017°56'4 8.4
2017-Sep-16 22:00N 39°53' E 017°52'6 8.2
2017-Sep-16 21:17N 39°57' E 017°46'5 7.7
2017-Sep-16 20:40N 40°00' E 017°42'1 7.4
2017-Sep-16 20:30N 40°01' E 017°41'4 7.6
2017-Sep-16 19:59N 40°04' E 017°37'4 7.6
2017-Sep-16 19:30N 40°06' E 017°33'4 7.6
2017-Sep-16 19:00N 40°09' E 017°30'4 7.7
2017-Sep-16 18:30N 40°11' E 017°26'4 7.5
2017-Sep-16 18:00N 40°14' E 017°22'4 7.6
2017-Sep-16 17:30N 40°17' E 017°19'4 7.8
2017-Sep-16 17:00N 40°19' E 017°15'4 7.8
2017-Sep-16 16:30N 40°22' E 017°11'4 7.1
2017-Sep-16 16:01N 40°25' E 017°09'4 8.8
2017-Sep-16 15:31N 40°28' E 017°13'1 1.1
2017-Sep-16 14:59N 40°29' E 017°13'0 0.0
2017-Sep-16 14:29N 40°29' E 017°13'0 0.0
2017-Sep-16 13:59N 40°29' E 017°13'0 0.0
2017-Sep-16 13:29N 40°29' E 017°13'0 0.0
2017-Sep-16 12:59N 40°29' E 017°13'0 0.0
2017-Sep-16 12:29N 40°29' E 017°13'0 0.0
2017-Sep-16 11:59N 40°29' E 017°13'0 0.0
2017-Sep-16 11:29N 40°29' E 017°13'0 0.0
2017-Sep-16 10:59N 40°29' E 017°13'0 0.0
2017-Sep-16 10:29N 40°29' E 017°13'0 0.0
2017-Sep-16 09:59N 40°29' E 017°13'0 0.0
2017-Sep-16 09:29N 40°29' E 017°13'0 0.0
2017-Sep-16 08:59N 40°29' E 017°13'0 0.0
2017-Sep-16 08:29N 40°29' E 017°13'0 0.0
2017-Sep-16 07:59N 40°29' E 017°13'0 0.0
2017-Sep-16 07:29N 40°29' E 017°13'0 0.0
2017-Sep-16 06:56N 40°29' E 017°13'0 0.0
2017-Sep-16 06:29N 40°29' E 017°13'0 0.0
2017-Sep-16 05:59N 40°29' E 017°13'0 0.0
2017-Sep-16 05:29N 40°29' E 017°13'0 0.0
2017-Sep-16 04:59N 40°29' E 017°13'0 0.0
2017-Sep-16 04:29N 40°29' E 017°13'0 0.0
2017-Sep-16 03:59N 40°29' E 017°13'0 0.0
2017-Sep-16 03:29N 40°29' E 017°13'0 0.0
2017-Sep-16 02:59N 40°29' E 017°13'0 0.0
2017-Sep-16 02:29N 40°29' E 017°13'0 0.0
2017-Sep-16 01:59N 40°29' E 017°13'0 0.0
2017-Sep-16 01:29N 40°29' E 017°13'0 0.0
2017-Sep-16 00:59N 40°29' E 017°13'0 0.0
2017-Sep-16 00:29N 40°29' E 017°13'0 0.0
2017-Sep-15 23:59N 40°29' E 017°13'0 0.0
2017-Sep-15 23:29N 40°29' E 017°13'0 0.0
2017-Sep-15 22:59N 40°29' E 017°13'0 0.0
2017-Sep-15 22:29N 40°29' E 017°13'0 0.0
2017-Sep-15 21:59N 40°29' E 017°13'0 0.0
2017-Sep-15 21:29N 40°29' E 017°13'0 0.0
2017-Sep-15 20:59N 40°29' E 017°13'0 0.0
2017-Sep-15 20:29N 40°29' E 017°13'0 0.0
2017-Sep-15 19:59N 40°29' E 017°13'0 0.0
2017-Sep-15 19:29N 40°29' E 017°13'0 0.0
2017-Sep-15 18:59N 40°29' E 017°13'0 0.0
2017-Sep-15 18:29N 40°29' E 017°13'0 0.0
2017-Sep-15 17:59N 40°29' E 017°13'0 0.0
2017-Sep-15 17:29N 40°29' E 017°13'0 0.0
2017-Sep-15 16:59N 40°29' E 017°13'0 0.0
2017-Sep-15 16:29N 40°29' E 017°13'0 0.0
2017-Sep-15 15:59N 40°29' E 017°13'0 0.0
2017-Sep-15 15:29N 40°29' E 017°13'0 0.0
2017-Sep-15 14:59N 40°29' E 017°13'0 0.0
2017-Sep-15 14:29N 40°29' E 017°13'0 0.0
2017-Sep-15 13:59N 40°29' E 017°13'0 0.0
2017-Sep-15 13:29N 40°29' E 017°13'0 0.0
2017-Sep-15 12:59N 40°29' E 017°13'0 0.0
2017-Sep-15 12:29N 40°29' E 017°13'0 0.0
2017-Sep-15 11:59N 40°29' E 017°13'0 0.0
2017-Sep-15 11:29N 40°29' E 017°13'0 0.0
2017-Sep-15 10:59N 40°29' E 017°13'0 0.0
2017-Sep-15 10:28N 40°29' E 017°13'0 0.0
2017-Sep-15 09:58N 40°29' E 017°13'0 0.0
2017-Sep-15 09:26N 40°29' E 017°13'0 0.0
2017-Sep-15 08:59N 40°29' E 017°13'0 0.0
2017-Sep-15 08:29N 40°29' E 017°13'0 0.0
2017-Sep-15 07:58N 40°29' E 017°13'0 0.0
2017-Sep-15 07:28N 40°29' E 017°13'0 0.0
2017-Sep-15 06:58N 40°29' E 017°13'0 0.0
2017-Sep-15 06:29N 40°29' E 017°13'0 0.0
2017-Sep-15 05:58N 40°29' E 017°13'0 0.0
2017-Sep-15 05:29N 40°29' E 017°13'0 0.0
2017-Sep-15 04:58N 40°29' E 017°13'0 0.0
2017-Sep-15 04:28N 40°29' E 017°13'0 0.0
2017-Sep-15 03:59N 40°29' E 017°13'0 0.0
2017-Sep-15 03:29N 40°29' E 017°13'0 0.0
2017-Sep-15 02:58N 40°29' E 017°13'0 0.0
2017-Sep-15 02:29N 40°29' E 017°13'0 0.0
2017-Sep-15 01:59N 40°29' E 017°13'0 0.0
2017-Sep-15 01:28N 40°29' E 017°13'0 0.0
2017-Sep-15 00:59N 40°29' E 017°13'0 0.0
2017-Sep-15 00:28N 40°29' E 017°13'0 0.0
2017-Sep-14 23:59N 40°29' E 017°13'0 0.0
2017-Sep-14 23:28N 40°29' E 017°13'0 0.0
2017-Sep-14 22:58N 40°29' E 017°13'0 0.0
2017-Sep-14 22:28N 40°29' E 017°13'0 0.0
2017-Sep-14 21:58N 40°29' E 017°13'0 0.0
2017-Sep-14 21:30N 40°29' E 017°13'0 0.0
2017-Sep-14 21:01N 40°29' E 017°13'0 0.0
2017-Sep-14 20:30N 40°29' E 017°13'0 0.0
2017-Sep-14 20:01N 40°29' E 017°13'0 0.0
2017-Sep-14 19:30N 40°29' E 017°13'0 0.0
2017-Sep-14 19:00N 40°29' E 017°13'0 0.0
2017-Sep-14 18:30N 40°29' E 017°13'0 0.0
2017-Sep-14 18:00N 40°29' E 017°13'0 0.0
2017-Sep-14 17:30N 40°29' E 017°13'0 0.0
2017-Sep-14 17:00N 40°29' E 017°13'0 0.0
2017-Sep-14 16:30N 40°29' E 017°13'0 0.0
2017-Sep-14 16:00N 40°29' E 017°13'0 0.0
2017-Sep-14 15:30N 40°29' E 017°13'0 0.0
2017-Sep-14 15:00N 40°29' E 017°13'0 0.0
2017-Sep-14 14:30N 40°29' E 017°13'0 0.0
2017-Sep-14 14:00N 40°29' E 017°13'0 0.0
2017-Sep-14 13:30N 40°29' E 017°13'0 0.0
2017-Sep-14 13:00N 40°29' E 017°13'0 0.0
2017-Sep-14 12:30N 40°29' E 017°13'0 0.0
2017-Sep-14 12:00N 40°29' E 017°13'0 0.0
2017-Sep-14 11:30N 40°29' E 017°13'0 0.0
2017-Sep-14 11:00N 40°29' E 017°13'0 0.0
2017-Sep-14 10:30N 40°29' E 017°13'0 0.0
2017-Sep-14 10:00N 40°29' E 017°13'1 1.7
2017-Sep-14 09:30N 40°28' E 017°13'4 7.8
2017-Sep-14 09:00N 40°25' E 017°10'1 2.4
2017-Sep-14 08:30N 40°24' E 017°09'5 9.2
2017-Sep-14 08:00N 40°20' E 017°12'5 9.4
2017-Sep-14 07:30N 40°17' E 017°17'5 9.1
2017-Sep-14 07:00N 40°14' E 017°21'4 8.7
2017-Sep-14 06:30N 40°11' E 017°26'4 8.8
2017-Sep-14 06:00N 40°08' E 017°30'4 8.8
2017-Sep-14 05:30N 40°05' E 017°35'4 8.7
2017-Sep-14 05:00N 40°02' E 017°39'4 8.6
2017-Sep-14 04:30N 39°59' E 017°43'4 8.6
2017-Sep-14 04:00N 39°57' E 017°47'10 8.4
2017-Sep-14 02:50N 39°50' E 017°57'3 8.4
2017-Sep-14 02:30N 39°48' E 017°59'4 8.5
2017-Sep-14 02:00N 39°45' E 018°04'4 8.4
2017-Sep-14 01:30N 39°43' E 018°08'4 8.3
2017-Sep-14 01:00N 39°42' E 018°13'4 8.4
2017-Sep-14 00:31N 39°43' E 018°19'4 8.8
2017-Sep-14 00:00N 39°43' E 018°24'12 9.6
2017-Sep-13 22:43N 39°55' E 018°30'2 9.0
2017-Sep-13 22:30N 39°57' E 018°31'5 8.8
2017-Sep-13 21:54N 40°02' E 018°34'4 9.4
2017-Sep-13 21:27N 40°06' E 018°35'5 9.6
2017-Sep-13 20:54N 40°11' E 018°34'4 9.2
2017-Sep-13 20:30N 40°14' E 018°33'12 9.2
2017-Sep-13 19:12N 40°25' E 018°26'2 9.8
2017-Sep-13 18:58N 40°27' E 018°24'  
Track history (hours):
 
Tides and Currents Weather Stations Pressure Air Temp Water Temp Dewpoint Dewpoint Depression Visibility Wind Speed Wind Dir Waves Ship Positions

Sider Manzanillo

Last reported at 2017-Sep-17 06:05 UTC. Time now 2017-Sep-25 08:23 UTC.
Position N 40°23' E 018°28'.
Warning: this ship's position is 8 days out of date.

Length 108 m; draft 7.3 m.

Type: Cargo ship. MMSI: 255806046.

Date/timePositionNaut miles runAvg speedWind from/ knotsBaromVisibWave heightAir tempDewpointWater temp
2017-Sep-17 06:05N 40°23' E 018°28'1 9.0
2017-Sep-17 05:59N 40°23' E 018°29'4 9.2
2017-Sep-17 05:30N 40°19' E 018°32'4 8.8
2017-Sep-17 05:00N 40°15' E 018°35'5 9.1
2017-Sep-17 04:28N 40°10' E 018°35'4 9.2
2017-Sep-17 04:00N 40°06' E 018°36'5 9.1
2017-Sep-17 03:30N 40°02' E 018°34'5 9.3
2017-Sep-17 03:00N 39°57' E 018°32'5 9.3
2017-Sep-17 02:30N 39°53' E 018°31'5 9.4
2017-Sep-17 02:00N 39°48' E 018°29'4 8.9
2017-Sep-17 01:30N 39°44' E 018°26'4 8.3
2017-Sep-17 01:00N 39°43' E 018°21'5 9.1
2017-Sep-17 00:30N 39°43' E 018°15'5 9.6
2017-Sep-17 00:00N 39°43' E 018°09'4 8.5
2017-Sep-16 23:30N 39°44' E 018°04'4 8.6
2017-Sep-16 22:59N 39°47' E 017°60'4 8.5
2017-Sep-16 22:30N 39°50' E 017°56'4 8.4
2017-Sep-16 22:00N 39°53' E 017°52'6 8.2
2017-Sep-16 21:17N 39°57' E 017°46'5 7.7
2017-Sep-16 20:40N 40°00' E 017°42'1 7.4
2017-Sep-16 20:30N 40°01' E 017°41'4 7.6
2017-Sep-16 19:59N 40°04' E 017°37'4 7.6
2017-Sep-16 19:30N 40°06' E 017°33'4 7.6
2017-Sep-16 19:00N 40°09' E 017°30'4 7.7
2017-Sep-16 18:30N 40°11' E 017°26'4 7.5
2017-Sep-16 18:00N 40°14' E 017°22'4 7.6
2017-Sep-16 17:30N 40°17' E 017°19'4 7.8
2017-Sep-16 17:00N 40°19' E 017°15'4 7.8
2017-Sep-16 16:30N 40°22' E 017°11'4 7.1
2017-Sep-16 16:01N 40°25' E 017°09'4 8.8
2017-Sep-16 15:31N 40°28' E 017°13'1 1.1
2017-Sep-16 14:59N 40°29' E 017°13'0 0.0
2017-Sep-16 14:29N 40°29' E 017°13'0 0.0
2017-Sep-16 13:59N 40°29' E 017°13'0 0.0
2017-Sep-16 13:29N 40°29' E 017°13'0 0.0
2017-Sep-16 12:59N 40°29' E 017°13'0 0.0
2017-Sep-16 12:29N 40°29' E 017°13'0 0.0
2017-Sep-16 11:59N 40°29' E 017°13'0 0.0
2017-Sep-16 11:29N 40°29' E 017°13'0 0.0
2017-Sep-16 10:59N 40°29' E 017°13'0 0.0
2017-Sep-16 10:29N 40°29' E 017°13'0 0.0
2017-Sep-16 09:59N 40°29' E 017°13'0 0.0
2017-Sep-16 09:29N 40°29' E 017°13'0 0.0
2017-Sep-16 08:59N 40°29' E 017°13'0 0.0
2017-Sep-16 08:29N 40°29' E 017°13'0 0.0
2017-Sep-16 07:59N 40°29' E 017°13'0 0.0
2017-Sep-16 07:29N 40°29' E 017°13'0 0.0
2017-Sep-16 06:56N 40°29' E 017°13'0 0.0
2017-Sep-16 06:29N 40°29' E 017°13'0 0.0
2017-Sep-16 05:59N 40°29' E 017°13'0 0.0
2017-Sep-16 05:29N 40°29' E 017°13'0 0.0
2017-Sep-16 04:59N 40°29' E 017°13'0 0.0
2017-Sep-16 04:29N 40°29' E 017°13'0 0.0
2017-Sep-16 03:59N 40°29' E 017°13'0 0.0
2017-Sep-16 03:29N 40°29' E 017°13'0 0.0
2017-Sep-16 02:59N 40°29' E 017°13'0 0.0
2017-Sep-16 02:29N 40°29' E 017°13'0 0.0
2017-Sep-16 01:59N 40°29' E 017°13'0 0.0
2017-Sep-16 01:29N 40°29' E 017°13'0 0.0
2017-Sep-16 00:59N 40°29' E 017°13'0 0.0
2017-Sep-16 00:29N 40°29' E 017°13'0 0.0
2017-Sep-15 23:59N 40°29' E 017°13'0 0.0
2017-Sep-15 23:29N 40°29' E 017°13'0 0.0
2017-Sep-15 22:59N 40°29' E 017°13'0 0.0
2017-Sep-15 22:29N 40°29' E 017°13'0 0.0
2017-Sep-15 21:59N 40°29' E 017°13'0 0.0
2017-Sep-15 21:29N 40°29' E 017°13'0 0.0
2017-Sep-15 20:59N 40°29' E 017°13'0 0.0
2017-Sep-15 20:29N 40°29' E 017°13'0 0.0
2017-Sep-15 19:59N 40°29' E 017°13'0 0.0
2017-Sep-15 19:29N 40°29' E 017°13'0 0.0
2017-Sep-15 18:59N 40°29' E 017°13'0 0.0
2017-Sep-15 18:29N 40°29' E 017°13'0 0.0
2017-Sep-15 17:59N 40°29' E 017°13'0 0.0
2017-Sep-15 17:29N 40°29' E 017°13'0 0.0
2017-Sep-15 16:59N 40°29' E 017°13'0 0.0
2017-Sep-15 16:29N 40°29' E 017°13'0 0.0
2017-Sep-15 15:59N 40°29' E 017°13'0 0.0
2017-Sep-15 15:29N 40°29' E 017°13'0 0.0
2017-Sep-15 14:59N 40°29' E 017°13'0 0.0
2017-Sep-15 14:29N 40°29' E 017°13'0 0.0
2017-Sep-15 13:59N 40°29' E 017°13'0 0.0
2017-Sep-15 13:29N 40°29' E 017°13'0 0.0
2017-Sep-15 12:59N 40°29' E 017°13'0 0.0
2017-Sep-15 12:29N 40°29' E 017°13'0 0.0
2017-Sep-15 11:59N 40°29' E 017°13'0 0.0
2017-Sep-15 11:29N 40°29' E 017°13'0 0.0
2017-Sep-15 10:59N 40°29' E 017°13'0 0.0
2017-Sep-15 10:28N 40°29' E 017°13'0 0.0
2017-Sep-15 09:58N 40°29' E 017°13'0 0.0
2017-Sep-15 09:26N 40°29' E 017°13'0 0.0
2017-Sep-15 08:59N 40°29' E 017°13'0 0.0
2017-Sep-15 08:29N 40°29' E 017°13'0 0.0
2017-Sep-15 07:58N 40°29' E 017°13'0 0.0
2017-Sep-15 07:28N 40°29' E 017°13'0 0.0
2017-Sep-15 06:58N 40°29' E 017°13'0 0.0
2017-Sep-15 06:29N 40°29' E 017°13'0 0.0
2017-Sep-15 05:58N 40°29' E 017°13'0 0.0
2017-Sep-15 05:29N 40°29' E 017°13'0 0.0
2017-Sep-15 04:58N 40°29' E 017°13'0 0.0
2017-Sep-15 04:28N 40°29' E 017°13'0 0.0
2017-Sep-15 03:59N 40°29' E 017°13'0 0.0
2017-Sep-15 03:29N 40°29' E 017°13'0 0.0
2017-Sep-15 02:58N 40°29' E 017°13'0 0.0
2017-Sep-15 02:29N 40°29' E 017°13'0 0.0
2017-Sep-15 01:59N 40°29' E 017°13'0 0.0
2017-Sep-15 01:28N 40°29' E 017°13'0 0.0
2017-Sep-15 00:59N 40°29' E 017°13'0 0.0
2017-Sep-15 00:28N 40°29' E 017°13'0 0.0
2017-Sep-14 23:59N 40°29' E 017°13'0 0.0
2017-Sep-14 23:28N 40°29' E 017°13'0 0.0
2017-Sep-14 22:58N 40°29' E 017°13'0 0.0
2017-Sep-14 22:28N 40°29' E 017°13'0 0.0
2017-Sep-14 21:58N 40°29' E 017°13'0 0.0
2017-Sep-14 21:30N 40°29' E 017°13'0 0.0
2017-Sep-14 21:01N 40°29' E 017°13'0 0.0
2017-Sep-14 20:30N 40°29' E 017°13'0 0.0
2017-Sep-14 20:01N 40°29' E 017°13'0 0.0
2017-Sep-14 19:30N 40°29' E 017°13'0 0.0
2017-Sep-14 19:00N 40°29' E 017°13'0 0.0
2017-Sep-14 18:30N 40°29' E 017°13'0 0.0
2017-Sep-14 18:00N 40°29' E 017°13'0 0.0
2017-Sep-14 17:30N 40°29' E 017°13'0 0.0
2017-Sep-14 17:00N 40°29' E 017°13'0 0.0
2017-Sep-14 16:30N 40°29' E 017°13'0 0.0
2017-Sep-14 16:00N 40°29' E 017°13'0 0.0
2017-Sep-14 15:30N 40°29' E 017°13'0 0.0
2017-Sep-14 15:00N 40°29' E 017°13'0 0.0
2017-Sep-14 14:30N 40°29' E 017°13'0 0.0
2017-Sep-14 14:00N 40°29' E 017°13'0 0.0
2017-Sep-14 13:30N 40°29' E 017°13'0 0.0
2017-Sep-14 13:00N 40°29' E 017°13'0 0.0
2017-Sep-14 12:30N 40°29' E 017°13'0 0.0
2017-Sep-14 12:00N 40°29' E 017°13'0 0.0
2017-Sep-14 11:30N 40°29' E 017°13'0 0.0
2017-Sep-14 11:00N 40°29' E 017°13'0 0.0
2017-Sep-14 10:30N 40°29' E 017°13'0 0.0
2017-Sep-14 10:00N 40°29' E 017°13'1 1.7
2017-Sep-14 09:30N 40°28' E 017°13'4 7.8
2017-Sep-14 09:00N 40°25' E 017°10'1 2.4
2017-Sep-14 08:30N 40°24' E 017°09'5 9.2
2017-Sep-14 08:00N 40°20' E 017°12'5 9.4
2017-Sep-14 07:30N 40°17' E 017°17'5 9.1
2017-Sep-14 07:00N 40°14' E 017°21'4 8.7
2017-Sep-14 06:30N 40°11' E 017°26'4 8.8
2017-Sep-14 06:00N 40°08' E 017°30'4 8.8
2017-Sep-14 05:30N 40°05' E 017°35'4 8.7
2017-Sep-14 05:00N 40°02' E 017°39'4 8.6
2017-Sep-14 04:30N 39°59' E 017°43'4 8.6
2017-Sep-14 04:00N 39°57' E 017°47'10 8.4
2017-Sep-14 02:50N 39°50' E 017°57'3 8.4
2017-Sep-14 02:30N 39°48' E 017°59'4 8.5
2017-Sep-14 02:00N 39°45' E 018°04'4 8.4
2017-Sep-14 01:30N 39°43' E 018°08'4 8.3
2017-Sep-14 01:00N 39°42' E 018°13'4 8.4
2017-Sep-14 00:31N 39°43' E 018°19'4 8.8
2017-Sep-14 00:00N 39°43' E 018°24'12 9.6
2017-Sep-13 22:43N 39°55' E 018°30'2 9.0
2017-Sep-13 22:30N 39°57' E 018°31'5 8.8
2017-Sep-13 21:54N 40°02' E 018°34'4 9.4
2017-Sep-13 21:27N 40°06' E 018°35'5 9.6
2017-Sep-13 20:54N 40°11' E 018°34'4 9.2
2017-Sep-13 20:30N 40°14' E 018°33'12 9.2
2017-Sep-13 19:12N 40°25' E 018°26'2 9.8
2017-Sep-13 18:58N 40°27' E 018°24'  

Dump ship's entire track history